createdAt,value
2018-03-17T00:01:38.588Z,39.20
2018-03-17T00:04:04.659Z,35.15
2018-03-17T00:06:30.760Z,31.23
2018-03-17T00:08:57.575Z,35.88
2018-03-17T00:11:23.672Z,32.75
2018-03-17T00:13:49.739Z,33.30
2018-03-17T00:16:15.836Z,34.33
2018-03-17T00:18:42.651Z,35.80
2018-03-17T00:21:08.792Z,37.05
2018-03-17T00:23:34.867Z,34.25
2018-03-17T00:26:01.876Z,36.85
2018-03-17T00:28:27.981Z,34.00
2018-03-17T00:30:54.055Z,37.58
2018-03-17T00:33:20.153Z,34.05
2018-03-17T00:35:46.227Z,36.95
2018-03-17T00:38:12.354Z,40.80
2018-03-17T00:40:38.464Z,38.45
2018-03-17T00:43:05.279Z,37.60
2018-03-17T00:45:31.384Z,39.13
2018-03-17T00:47:57.454Z,48.13
2018-03-17T00:50:23.584Z,41.05
2018-03-17T00:52:49.706Z,43.60
2018-03-17T00:55:15.809Z,36.83
2018-03-17T00:57:42.626Z,39.78
2018-03-17T01:00:08.736Z,44.67
2018-03-17T01:02:35.060Z,46.80
2018-03-17T01:05:01.195Z,56.50
2018-03-17T01:07:27.583Z,47.25
2018-03-17T01:09:53.671Z,48.50
2018-03-17T01:12:20.255Z,47.20
2018-03-17T01:14:46.391Z,44.50
2018-03-17T01:17:12.499Z,44.78
2018-03-17T01:19:38.630Z,41.90
2018-03-17T01:22:05.484Z,44.33
2018-03-17T01:24:32.294Z,53.13
2018-03-17T01:26:58.366Z,39.38
2018-03-17T01:29:25.276Z,48.58
2018-03-17T01:31:51.352Z,41.60
2018-03-17T01:34:17.459Z,41.42
2018-03-17T01:36:44.278Z,44.67
2018-03-17T01:39:10.379Z,39.75
2018-03-17T01:41:36.460Z,45.30
2018-03-17T01:44:02.541Z,46.20
2018-03-17T01:46:28.663Z,45.08
2018-03-17T01:48:54.743Z,43.67
2018-03-17T01:51:21.572Z,42.62
2018-03-17T01:53:47.681Z,39.03
2018-03-17T01:56:13.761Z,37.05
2018-03-17T01:58:39.867Z,37.40
2018-03-17T02:01:05.943Z,41.58
2018-03-17T02:03:32.922Z,39.53
2018-03-17T02:05:59.746Z,42.15
2018-03-17T02:08:25.801Z,41.45
2018-03-17T02:10:52.622Z,44.97
2018-03-17T02:13:18.705Z,40.55
2018-03-17T02:15:45.502Z,39.67
2018-03-17T02:18:11.616Z,41.08
2018-03-17T02:20:37.713Z,43.35
2018-03-17T02:23:03.874Z,41.53
2018-03-17T02:25:30.698Z,43.38
2018-03-17T02:27:56.786Z,45.90
2018-03-17T02:30:22.893Z,43.28
2018-03-17T02:32:49.722Z,48.63
2018-03-17T02:35:15.779Z,38.88
2018-03-17T02:37:42.569Z,43.47
2018-03-17T02:40:08.650Z,43.10
2018-03-17T02:42:34.714Z,42.53
2018-03-17T02:45:01.553Z,38.83
2018-03-17T02:47:27.607Z,42.60
2018-03-17T02:49:54.415Z,38.33
2018-03-17T02:52:20.502Z,41.47
2018-03-17T02:54:47.358Z,38.05
2018-03-17T02:57:14.158Z,42.47
2018-03-17T02:59:40.267Z,40.17
2018-03-17T03:02:06.326Z,45.60
2018-03-17T03:04:32.431Z,35.20
2018-03-17T03:06:59.230Z,42.90
2018-03-17T03:09:25.318Z,40.35
2018-03-17T03:11:52.120Z,41.78
2018-03-17T03:14:18.185Z,45.60
2018-03-17T03:16:44.280Z,45.28
2018-03-17T03:19:10.329Z,42.40
2018-03-17T03:21:36.413Z,40.92
2018-03-17T03:24:02.510Z,43.72
2018-03-17T03:26:28.694Z,41.58
2018-03-17T03:28:55.494Z,44.88
2018-03-17T03:31:21.618Z,42.58
2018-03-17T03:33:47.682Z,46.28
2018-03-17T03:36:13.786Z,44.75
2018-03-17T03:38:39.866Z,45.10
2018-03-17T03:41:05.954Z,49.03
2018-03-17T03:43:32.742Z,40.97
2018-03-17T03:45:58.826Z,44.65
2018-03-17T03:48:24.878Z,44.53
2018-03-17T03:50:51.759Z,40.50
2018-03-17T03:53:17.819Z,42.92
2018-03-17T03:55:44.641Z,37.47
2018-03-17T03:58:10.708Z,48.78
2018-03-17T04:00:36.802Z,42.78
2018-03-17T04:03:02.862Z,42.83
2018-03-17T04:05:28.932Z,42.05
2018-03-17T04:07:55.750Z,43.90
2018-03-17T04:10:21.797Z,38.17
2018-03-17T04:12:47.874Z,31.92
2018-03-17T04:15:13.922Z,37.92
2018-03-17T04:17:39.997Z,41.85
2018-03-17T04:20:06.080Z,39.58
2018-03-17T04:22:32.137Z,39.72
2018-03-17T04:24:58.954Z,39.92
2018-03-17T04:27:24.994Z,31.55
2018-03-17T04:29:51.085Z,34.05
2018-03-17T04:32:17.135Z,32.33
2018-03-17T04:34:43.185Z,38.60
2018-03-17T04:37:09.254Z,35.58
2018-03-17T04:39:35.294Z,36.63
2018-03-17T04:42:01.367Z,32.45
2018-03-17T04:44:28.145Z,37.40
2018-03-17T04:46:54.217Z,33.63
2018-03-17T04:49:20.310Z,33.67
2018-03-17T04:51:46.422Z,39.63
2018-03-17T04:54:13.225Z,32.13
2018-03-17T04:56:39.266Z,36.58
2018-03-17T04:59:05.342Z,39.15
2018-03-17T05:01:31.385Z,40.17
2018-03-17T05:03:58.218Z,34.83
2018-03-17T05:06:24.309Z,34.78
2018-03-17T05:08:50.426Z,34.60
2018-03-17T05:11:17.217Z,32.58
2018-03-17T05:13:43.359Z,29.37
2018-03-17T05:16:09.745Z,33.40
2018-03-17T05:18:35.830Z,36.60
2018-03-17T05:21:01.909Z,34.33
2018-03-17T05:23:27.961Z,33.85
2018-03-17T05:25:54.048Z,30.90
2018-03-17T05:28:20.134Z,34.08
2018-03-17T05:30:46.938Z,34.10
2018-03-17T05:33:12.985Z,31.12
2018-03-17T05:35:39.102Z,32.75
2018-03-17T05:38:05.185Z,32.55
2018-03-17T05:40:31.287Z,32.08
2018-03-17T05:42:58.116Z,32.80
2018-03-17T05:45:24.212Z,31.27
2018-03-17T05:47:50.657Z,29.17
2018-03-17T05:50:16.751Z,33.20
2018-03-17T05:52:42.837Z,29.10
2018-03-17T05:55:08.905Z,30.37
2018-03-17T05:57:35.701Z,29.60
2018-03-17T06:00:01.846Z,27.50
2018-03-17T06:02:27.934Z,33.65
2018-03-17T06:04:54.782Z,30.12
2018-03-17T06:07:21.599Z,30.40
2018-03-17T06:09:47.701Z,31.33
2018-03-17T06:12:13.829Z,29.73
2018-03-17T06:14:39.890Z,29.20
2018-03-17T06:17:05.978Z,27.10
2018-03-17T06:19:32.034Z,26.15
2018-03-17T06:21:58.857Z,26.35
2018-03-17T06:24:24.931Z,25.67
2018-03-17T06:26:51.753Z,26.83
2018-03-17T06:29:17.814Z,27.42
2018-03-17T06:31:44.641Z,24.60
2018-03-17T06:34:10.709Z,23.80
2018-03-17T06:36:37.550Z,25.62
2018-03-17T06:39:03.723Z,23.98
2018-03-17T06:41:29.854Z,26.50
2018-03-17T06:43:55.935Z,24.60
2018-03-17T06:46:22.027Z,25.15
2018-03-17T06:48:48.136Z,27.55
2018-03-17T06:51:14.238Z,25.70
2018-03-17T06:53:40.341Z,26.48
2018-03-17T06:56:06.401Z,25.17
2018-03-17T06:58:32.457Z,26.12
2018-03-17T07:00:58.565Z,31.20
2018-03-17T07:03:24.626Z,24.20
2018-03-17T07:05:50.753Z,21.65
2018-03-17T07:08:16.825Z,30.45
2018-03-17T07:10:42.873Z,21.52
2018-03-17T07:13:08.966Z,30.67
2018-03-17T07:15:35.030Z,24.65
2018-03-17T07:18:01.095Z,27.62
2018-03-17T07:20:27.929Z,22.33
2018-03-17T07:22:54.007Z,27.83
2018-03-17T07:25:20.108Z,19.87
2018-03-17T07:27:46.154Z,20.88
2018-03-17T07:30:12.222Z,23.60
2018-03-17T07:32:38.314Z,19.20
2018-03-17T07:35:04.375Z,18.55
2018-03-17T07:37:31.190Z,16.65
2018-03-17T07:39:57.302Z,20.17
2018-03-17T07:42:23.398Z,33.58
2018-03-17T07:44:49.495Z,55.50
2018-03-17T07:47:15.693Z,80.75
2018-03-17T07:49:42.524Z,34.22
2018-03-17T07:52:08.659Z,29.35
2018-03-17T07:54:34.765Z,20.75
2018-03-17T07:57:00.828Z,18.90
2018-03-17T07:59:26.927Z,21.20
2018-03-17T08:01:53.797Z,22.90
2018-03-17T08:04:19.862Z,22.40
2018-03-17T08:06:46.057Z,19.02
2018-03-17T08:09:12.114Z,19.67
2018-03-17T08:11:38.194Z,20.30
2018-03-17T08:14:04.992Z,18.25
2018-03-17T08:16:31.134Z,20.10
2018-03-17T08:18:57.220Z,17.92
2018-03-17T08:21:23.341Z,21.67
2018-03-17T08:23:49.418Z,17.73
2018-03-17T08:26:15.518Z,20.20
2018-03-17T08:28:41.637Z,16.48
2018-03-17T08:31:07.706Z,16.65
2018-03-17T08:33:33.943Z,17.20
2018-03-17T08:36:00.019Z,20.70
2018-03-17T08:38:26.104Z,28.95
2018-03-17T08:40:52.167Z,28.45
2018-03-17T08:43:19.070Z,22.70
2018-03-17T08:45:45.841Z,34.15
2018-03-17T08:48:11.921Z,22.02
2018-03-17T08:50:38.762Z,19.12
2018-03-17T08:53:04.845Z,18.55
2018-03-17T08:55:31.637Z,24.95
2018-03-17T08:57:57.797Z,25.55
2018-03-17T09:00:23.805Z,22.13
2018-03-17T09:02:49.894Z,21.83
2018-03-17T09:05:16.682Z,18.25
2018-03-17T09:07:42.748Z,22.98
2018-03-17T09:10:08.850Z,21.65
2018-03-17T09:12:34.910Z,19.48
2018-03-17T09:15:00.978Z,20.15
2018-03-17T09:17:27.029Z,20.70
2018-03-17T09:19:53.861Z,21.12
2018-03-17T09:22:21.035Z,19.83
2018-03-17T09:24:49.202Z,18.85
2018-03-17T09:27:15.280Z,22.23
2018-03-17T09:29:41.772Z,18.75
2018-03-17T09:32:07.847Z,18.30
2018-03-17T09:34:34.927Z,17.87
2018-03-17T09:37:03.139Z,19.20
2018-03-17T09:39:29.206Z,19.37
2018-03-17T09:41:55.419Z,19.52
2018-03-17T09:44:21.511Z,19.80
2018-03-17T09:46:48.406Z,21.08
2018-03-17T09:49:14.515Z,19.40
2018-03-17T09:51:41.382Z,19.05
2018-03-17T09:54:07.434Z,19.23
2018-03-17T09:56:33.477Z,23.33
2018-03-17T09:58:59.554Z,26.15
2018-03-17T10:01:25.626Z,20.20
2018-03-17T10:03:52.445Z,19.95
2018-03-17T10:06:18.507Z,18.35
2018-03-17T10:08:45.322Z,20.50
2018-03-17T10:11:11.402Z,22.27
2018-03-17T10:13:38.262Z,18.42
2018-03-17T10:16:05.106Z,16.90
2018-03-17T10:18:31.897Z,19.87
2018-03-17T10:20:57.985Z,19.40
2018-03-17T10:23:24.058Z,18.08
2018-03-17T10:25:50.161Z,17.77
2018-03-17T10:28:16.258Z,15.25
2018-03-17T10:30:42.322Z,16.40
2018-03-17T10:33:08.382Z,19.45
2018-03-17T10:35:34.472Z,16.08
2018-03-17T10:38:00.526Z,18.58
2018-03-17T10:40:26.606Z,17.77
2018-03-17T10:42:53.541Z,16.62
2018-03-17T10:45:19.762Z,15.57
2018-03-17T10:47:45.882Z,16.00
2018-03-17T10:50:12.642Z,19.85
2018-03-17T10:52:38.722Z,18.65
2018-03-17T10:55:05.538Z,14.80
2018-03-17T10:57:31.647Z,23.12
2018-03-17T10:59:57.714Z,17.35
2018-03-17T11:02:23.833Z,15.63
2018-03-17T11:04:49.885Z,16.40
2018-03-17T11:07:16.006Z,17.80
2018-03-17T11:09:42.129Z,16.10
2018-03-17T11:12:08.186Z,15.27
2018-03-17T11:14:34.281Z,14.77
2018-03-17T11:17:00.378Z,22.20
2018-03-17T11:19:26.442Z,18.05
2018-03-17T11:21:52.562Z,34.05
2018-03-17T11:24:18.613Z,52.33
2018-03-17T11:26:44.678Z,24.85
2018-03-17T11:29:11.495Z,23.62
2018-03-17T11:31:37.566Z,25.62
2018-03-17T11:34:04.397Z,18.73
2018-03-17T11:36:30.481Z,21.87
2018-03-17T11:38:56.573Z,20.00
2018-03-17T11:41:22.670Z,21.27
2018-03-17T11:43:48.810Z,16.10
2018-03-17T11:46:14.885Z,21.12
2018-03-17T11:48:40.950Z,17.80
2018-03-17T11:51:07.785Z,20.35
2018-03-17T11:53:33.978Z,20.00
2018-03-17T11:56:00.062Z,21.33
2018-03-17T11:58:26.113Z,19.90
2018-03-17T12:00:52.189Z,22.20
2018-03-17T12:03:18.270Z,21.62
2018-03-17T12:05:44.354Z,20.20
2018-03-17T12:08:10.430Z,19.37
2018-03-17T12:10:36.517Z,23.25
2018-03-17T12:13:03.362Z,18.60
2018-03-17T12:15:30.158Z,23.33
2018-03-17T12:17:56.239Z,25.58
2018-03-17T12:20:22.305Z,26.70
2018-03-17T12:22:49.150Z,23.10
2018-03-17T12:25:16.019Z,22.00
2018-03-17T12:27:42.850Z,19.73
2018-03-17T12:30:08.913Z,19.30
2018-03-17T12:32:35.703Z,20.60
2018-03-17T12:35:01.782Z,25.17
2018-03-17T12:37:27.869Z,21.02
2018-03-17T12:39:53.927Z,18.27
2018-03-17T12:42:20.001Z,23.40
2018-03-17T12:44:46.893Z,22.85
2018-03-17T12:47:12.953Z,24.98
2018-03-17T12:49:39.038Z,24.02
2018-03-17T12:52:05.836Z,20.37
2018-03-17T12:54:31.937Z,21.52
2018-03-17T12:56:58.722Z,21.40
2018-03-17T12:59:24.792Z,20.02
2018-03-17T13:01:51.614Z,23.83
2018-03-17T13:04:17.704Z,26.17
2018-03-17T13:06:43.771Z,23.05
2018-03-17T13:09:09.818Z,22.67
2018-03-17T13:11:35.902Z,23.10
2018-03-17T13:14:02.069Z,17.92
2018-03-17T13:16:28.919Z,21.20
2018-03-17T13:18:55.810Z,23.10
2018-03-17T13:21:21.856Z,22.67
2018-03-17T13:23:47.930Z,22.20
2018-03-17T13:26:13.970Z,15.68
2018-03-17T13:28:40.147Z,18.75
2018-03-17T13:31:06.262Z,21.08
2018-03-17T13:33:32.417Z,23.67
2018-03-17T13:36:11.659Z,21.42
2018-03-17T13:38:38.489Z,23.05
2018-03-17T13:41:04.497Z,19.98
2018-03-17T13:43:30.569Z,21.23
2018-03-17T13:45:56.650Z,24.67
2018-03-17T13:48:22.781Z,24.15
2018-03-17T13:50:48.910Z,24.40
2018-03-17T13:53:15.717Z,21.65
2018-03-17T13:55:41.823Z,21.15
2018-03-17T13:58:07.904Z,21.75
2018-03-17T14:00:33.958Z,20.90
2018-03-17T14:03:00.060Z,24.20
2018-03-17T14:05:26.137Z,21.60
2018-03-17T14:07:52.234Z,24.12
2018-03-17T14:10:18.298Z,26.00
2018-03-17T14:12:44.393Z,22.80
2018-03-17T14:15:10.475Z,25.58
2018-03-17T14:17:36.583Z,20.73
2018-03-17T14:20:02.678Z,24.15
2018-03-17T14:22:29.506Z,22.60
2018-03-17T14:24:55.566Z,22.42
2018-03-17T14:27:22.406Z,23.35
2018-03-17T14:29:48.458Z,26.35
2018-03-17T14:32:15.259Z,19.52
2018-03-17T14:34:41.337Z,27.25
2018-03-17T14:37:07.402Z,27.65
2018-03-17T14:39:34.291Z,22.13
2018-03-17T14:42:00.413Z,22.65
2018-03-17T14:44:26.470Z,27.75
2018-03-17T14:46:52.593Z,22.40
2018-03-17T14:49:18.645Z,21.35
2018-03-17T14:51:44.708Z,26.92
2018-03-17T14:54:10.815Z,25.02
2018-03-17T14:56:36.882Z,20.23
2018-03-17T14:59:03.102Z,22.62
2018-03-17T15:01:29.174Z,28.33
2018-03-17T15:03:56.002Z,22.77
2018-03-17T15:06:22.113Z,23.02
2018-03-17T15:08:48.173Z,21.92
2018-03-17T15:11:14.259Z,31.27
2018-03-17T15:13:41.082Z,22.33
2018-03-17T15:16:07.157Z,24.87
2018-03-17T15:18:34.042Z,22.65
2018-03-17T15:21:00.110Z,27.95
2018-03-17T15:23:26.196Z,24.77
2018-03-17T15:25:53.039Z,23.38
2018-03-17T15:28:19.866Z,23.42
2018-03-17T15:30:45.942Z,24.12
2018-03-17T15:33:12.814Z,23.75
2018-03-17T15:35:38.906Z,20.50
2018-03-17T15:38:04.962Z,21.62
2018-03-17T15:40:31.814Z,21.98
2018-03-17T15:42:58.612Z,20.17
2018-03-17T15:45:24.683Z,19.80
2018-03-17T15:47:50.791Z,25.52
2018-03-17T15:50:16.901Z,20.98
2018-03-17T15:52:43.750Z,24.52
2018-03-17T15:55:10.647Z,32.50
2018-03-17T15:57:36.710Z,25.98
2018-03-17T16:00:02.980Z,34.45
2018-03-17T16:02:29.121Z,36.50
2018-03-17T16:04:57.743Z,27.45
2018-03-17T16:07:24.681Z,30.12
2018-03-17T16:09:51.592Z,31.65
2018-03-17T16:12:18.466Z,24.25
2018-03-17T16:14:44.627Z,21.50
2018-03-17T16:17:11.458Z,23.65
2018-03-17T16:19:37.558Z,24.58
2018-03-17T16:22:03.661Z,27.33
2018-03-17T16:24:30.519Z,26.85
2018-03-17T16:26:57.362Z,22.23
2018-03-17T16:29:23.422Z,24.37
2018-03-17T16:31:49.490Z,25.42
2018-03-17T16:34:15.577Z,24.37
2018-03-17T16:36:42.433Z,27.02
2018-03-17T16:39:09.478Z,18.23
2018-03-17T16:41:35.566Z,29.30
2018-03-17T16:44:02.389Z,21.42
2018-03-17T16:46:29.237Z,25.52
2018-03-17T16:48:56.077Z,25.80
2018-03-17T16:51:22.161Z,26.77
2018-03-17T16:53:48.254Z,25.45
2018-03-17T16:56:14.361Z,16.05
2018-03-17T16:58:40.482Z,24.55
2018-03-17T17:01:06.565Z,24.27
2018-03-17T17:03:32.685Z,19.85
2018-03-17T17:05:58.782Z,26.00
2018-03-17T17:08:24.841Z,23.75
2018-03-17T17:10:50.930Z,25.42
2018-03-17T17:13:17.741Z,23.10
2018-03-17T17:15:43.830Z,20.92
2018-03-17T17:18:10.703Z,20.33
2018-03-17T17:20:36.767Z,20.75
2018-03-17T17:23:03.071Z,23.20
2018-03-17T17:25:30.054Z,24.65
2018-03-17T17:27:56.174Z,25.83
2018-03-17T17:30:23.580Z,19.00
2018-03-17T17:32:50.518Z,22.90
2018-03-17T17:35:16.583Z,21.52
2018-03-17T17:37:42.865Z,23.33
2018-03-17T17:40:09.014Z,21.95
2018-03-17T17:42:36.070Z,24.60
2018-03-17T17:45:03.077Z,29.10
2018-03-17T17:47:29.211Z,24.20
2018-03-17T17:49:55.325Z,22.13
2018-03-17T17:52:21.401Z,26.62
2018-03-17T17:54:47.524Z,26.45
2018-03-17T17:57:13.605Z,25.50
2018-03-17T17:59:39.675Z,20.70
2018-03-17T18:02:05.847Z,25.15
2018-03-17T18:04:31.910Z,24.42
2018-03-17T18:06:58.002Z,21.05
2018-03-17T18:09:24.103Z,28.58
2018-03-17T18:11:50.933Z,19.90
2018-03-17T18:14:17.038Z,24.15
2018-03-17T18:16:43.865Z,22.35
2018-03-17T18:19:10.694Z,21.12
2018-03-17T18:21:36.754Z,27.73
2018-03-17T18:24:02.921Z,22.75
2018-03-17T18:26:28.950Z,20.83
2018-03-17T18:28:55.069Z,24.40
2018-03-17T18:31:21.864Z,25.00
2018-03-17T18:33:47.994Z,25.35
2018-03-17T18:36:14.094Z,24.58
2018-03-17T18:38:40.894Z,25.37
2018-03-17T18:41:06.962Z,20.37
2018-03-17T18:43:33.055Z,27.58
2018-03-17T18:45:59.382Z,22.30
2018-03-17T18:48:25.614Z,29.35
2018-03-17T18:50:53.320Z,28.15
2018-03-17T18:53:19.437Z,31.33
2018-03-17T18:55:50.918Z,27.17
2018-03-17T18:58:17.348Z,34.17
2018-03-17T19:00:43.479Z,30.60
2018-03-17T19:03:10.358Z,25.15
2018-03-17T19:05:36.478Z,23.20
2018-03-17T19:08:04.149Z,23.50
2018-03-17T19:10:31.414Z,20.95
2018-03-17T19:12:57.582Z,22.42
2018-03-17T19:15:23.707Z,24.98
2018-03-17T19:17:49.754Z,20.58
2018-03-17T19:20:15.883Z,16.87
2018-03-17T19:22:42.035Z,31.33
2018-03-17T19:25:08.191Z,23.50
2018-03-17T19:27:34.291Z,26.02
2018-03-17T19:30:00.484Z,23.25
2018-03-17T19:32:26.570Z,30.95
2018-03-17T19:34:52.762Z,22.15
2018-03-17T19:37:18.871Z,25.70
2018-03-17T19:39:45.160Z,24.25
2018-03-17T19:42:12.365Z,23.75
2018-03-17T19:44:38.487Z,24.02
2018-03-17T19:47:08.427Z,24.83
2018-03-17T19:49:34.590Z,28.05
2018-03-17T19:52:00.678Z,24.67
2018-03-17T19:54:27.475Z,33.95
2018-03-17T19:56:53.625Z,25.85
2018-03-17T19:59:19.686Z,25.88
2018-03-17T20:01:45.780Z,26.35
2018-03-17T20:04:11.933Z,26.55
2018-03-17T20:06:38.070Z,23.95
2018-03-17T20:09:04.198Z,22.67
2018-03-17T20:11:30.283Z,26.58
2018-03-17T20:13:56.386Z,22.90
2018-03-17T20:16:22.486Z,25.48
2018-03-17T20:18:49.285Z,23.75
2018-03-17T20:21:15.358Z,23.00
2018-03-17T20:23:41.450Z,19.67
2018-03-17T20:26:08.255Z,24.37
2018-03-17T20:28:34.339Z,22.17
2018-03-17T20:31:00.488Z,22.62
2018-03-17T20:33:26.996Z,24.85
2018-03-17T20:35:53.206Z,22.52
2018-03-17T20:38:19.375Z,20.25
2018-03-17T20:40:46.246Z,25.05
2018-03-17T20:43:12.386Z,25.35
2018-03-17T20:45:38.472Z,23.60
2018-03-17T20:48:04.695Z,25.70
2018-03-17T20:50:30.982Z,27.05
2018-03-17T20:52:57.976Z,25.17
2018-03-17T20:55:24.188Z,23.02
2018-03-17T20:57:50.333Z,35.17
2018-03-17T21:00:17.530Z,30.37
2018-03-17T21:02:43.619Z,28.52
2018-03-17T21:05:11.622Z,24.05
2018-03-17T21:07:37.770Z,22.95
2018-03-17T21:10:03.855Z,22.73
2018-03-17T21:12:29.900Z,32.63
2018-03-17T21:14:56.082Z,35.17
2018-03-17T21:17:22.161Z,37.03
2018-03-17T21:19:48.238Z,28.73
2018-03-17T21:22:15.024Z,53.50
2018-03-17T21:24:41.870Z,53.10
2018-03-17T21:27:07.919Z,42.53
2018-03-17T21:29:34.044Z,91.60
2018-03-17T21:32:00.167Z,27.77
2018-03-17T21:34:27.006Z,62.90
2018-03-17T21:36:53.886Z,51.55
2018-03-17T21:39:19.986Z,27.80
2018-03-17T21:41:46.182Z,32.10
2018-03-17T21:44:12.230Z,41.78
2018-03-17T21:46:38.331Z,27.30
2018-03-17T21:49:04.703Z,29.05
2018-03-17T21:51:31.559Z,28.85
2018-03-17T21:53:57.650Z,31.12
2018-03-17T21:56:23.726Z,28.40
2018-03-17T21:58:49.778Z,26.12
2018-03-17T22:01:15.845Z,34.95
2018-03-17T22:03:41.918Z,25.70
2018-03-17T22:06:07.990Z,28.90
2018-03-17T22:08:34.128Z,30.33
2018-03-17T22:11:00.194Z,28.62
2018-03-17T22:13:26.298Z,31.02
2018-03-17T22:15:52.418Z,31.30
2018-03-17T22:18:18.478Z,27.15
2018-03-17T22:20:44.550Z,26.70
2018-03-17T22:23:10.606Z,29.10
2018-03-17T22:25:37.498Z,31.37
2018-03-17T22:28:03.562Z,27.13
2018-03-17T22:30:29.698Z,28.40
2018-03-17T22:32:55.798Z,29.30
2018-03-17T22:35:21.978Z,32.80
2018-03-17T22:37:48.070Z,30.15
2018-03-17T22:40:14.154Z,28.83
2018-03-17T22:42:40.381Z,29.52
2018-03-17T22:45:06.437Z,26.75
2018-03-17T22:47:32.533Z,28.92
2018-03-17T22:49:58.612Z,26.48
2018-03-17T22:52:24.682Z,27.65
2018-03-17T22:54:51.659Z,32.50
2018-03-17T22:57:17.777Z,28.33
2018-03-17T22:59:44.690Z,24.95
2018-03-17T23:02:10.793Z,26.90
2018-03-17T23:04:36.884Z,37.22
2018-03-17T23:07:02.985Z,24.75
2018-03-17T23:09:29.078Z,29.85
2018-03-17T23:11:55.914Z,25.30
2018-03-17T23:14:24.898Z,34.30
2018-03-17T23:16:51.205Z,28.00
2018-03-17T23:19:17.254Z,26.45
2018-03-17T23:21:43.381Z,25.45
2018-03-17T23:24:09.441Z,25.55
2018-03-17T23:26:35.506Z,23.27
2018-03-17T23:29:01.570Z,24.15
2018-03-17T23:31:28.406Z,25.50
2018-03-17T23:33:54.490Z,30.50
2018-03-17T23:36:20.569Z,27.20
2018-03-17T23:38:46.635Z,25.05
2018-03-17T23:41:13.470Z,24.30
2018-03-17T23:43:39.542Z,33.45
2018-03-17T23:46:06.412Z,23.00
2018-03-17T23:48:32.557Z,24.52
2018-03-17T23:50:58.639Z,22.37
2018-03-17T23:53:24.722Z,25.73
2018-03-17T23:55:50.840Z,27.95
2018-03-17T23:58:17.675Z,25.27
